sensor_id;sensor_type;location;lat;lon;timestamp;P1;durP1;ratioP1;P2;durP2;ratioP2
40254;SDS011;25973;52.368;4.940;2022-08-14T00:00:14;4.05;;;2.88;;
40254;SDS011;25973;52.368;4.940;2022-08-14T00:02:41;4.35;;;3.00;;
40254;SDS011;25973;52.368;4.940;2022-08-14T00:05:09;8.27;;;3.58;;
40254;SDS011;25973;52.368;4.940;2022-08-14T00:10:05;6.40;;;2.78;;
40254;SDS011;25973;52.368;4.940;2022-08-14T00:12:33;5.18;;;2.90;;
40254;SDS011;25973;52.368;4.940;2022-08-14T00:15:03;5.78;;;3.65;;
40254;SDS011;25973;52.368;4.940;2022-08-14T00:17:32;4.45;;;2.90;;
40254;SDS011;25973;52.368;4.940;2022-08-14T00:19:57;7.45;;;3.40;;
40254;SDS011;25973;52.368;4.940;2022-08-14T00:22:23;7.55;;;3.15;;
40254;SDS011;25973;52.368;4.940;2022-08-14T00:24:48;9.07;;;3.30;;
40254;SDS011;25973;52.368;4.940;2022-08-14T00:27:14;6.10;;;3.17;;
40254;SDS011;25973;52.368;4.940;2022-08-14T00:29:39;5.85;;;3.47;;
40254;SDS011;25973;52.368;4.940;2022-08-14T00:32:05;6.82;;;3.45;;
40254;SDS011;25973;52.368;4.940;2022-08-14T00:34:31;15.02;;;3.72;;
40254;SDS011;25973;52.368;4.940;2022-08-14T00:36:56;12.15;;;3.60;;
40254;SDS011;25973;52.368;4.940;2022-08-14T00:39:22;5.95;;;3.38;;
40254;SDS011;25973;52.368;4.940;2022-08-14T00:41:48;5.07;;;3.17;;
40254;SDS011;25973;52.368;4.940;2022-08-14T00:44:15;7.47;;;3.65;;
40254;SDS011;25973;52.368;4.940;2022-08-14T00:46:40;6.00;;;3.28;;
40254;SDS011;25973;52.368;4.940;2022-08-14T00:49:07;5.40;;;2.80;;
40254;SDS011;25973;52.368;4.940;2022-08-14T00:51:33;8.90;;;3.15;;
40254;SDS011;25973;52.368;4.940;2022-08-14T00:53:59;6.45;;;3.20;;
40254;SDS011;25973;52.368;4.940;2022-08-14T00:56:27;5.43;;;3.25;;
40254;SDS011;25973;52.368;4.940;2022-08-14T00:58:53;4.53;;;2.95;;
40254;SDS011;25973;52.368;4.940;2022-08-14T01:01:23;4.40;;;2.78;;
40254;SDS011;25973;52.368;4.940;2022-08-14T01:03:49;5.82;;;3.15;;
40254;SDS011;25973;52.368;4.940;2022-08-14T01:06:17;9.05;;;3.50;;
40254;SDS011;25973;52.368;4.940;2022-08-14T01:08:43;5.03;;;3.55;;
40254;SDS011;25973;52.368;4.940;2022-08-14T01:11:15;6.95;;;3.25;;
40254;SDS011;25973;52.368;4.940;2022-08-14T01:13:42;5.10;;;3.67;;
40254;SDS011;25973;52.368;4.940;2022-08-14T01:16:13;5.07;;;3.38;;
40254;SDS011;25973;52.368;4.940;2022-08-14T01:18:40;5.63;;;3.20;;
40254;SDS011;25973;52.368;4.940;2022-08-14T01:21:32;7.25;;;3.42;;
40254;SDS011;25973;52.368;4.940;2022-08-14T01:23:59;10.73;;;3.78;;
40254;SDS011;25973;52.368;4.940;2022-08-14T01:26:25;4.82;;;3.22;;
40254;SDS011;25973;52.368;4.940;2022-08-14T01:28:52;4.72;;;3.08;;
40254;SDS011;25973;52.368;4.940;2022-08-14T01:31:20;6.63;;;3.35;;
40254;SDS011;25973;52.368;4.940;2022-08-14T01:33:54;11.50;;;3.53;;
40254;SDS011;25973;52.368;4.940;2022-08-14T01:36:22;4.88;;;3.33;;
40254;SDS011;25973;52.368;4.940;2022-08-14T01:38:53;9.65;;;4.18;;
40254;SDS011;25973;52.368;4.940;2022-08-14T01:41:23;4.97;;;3.53;;
40254;SDS011;25973;52.368;4.940;2022-08-14T01:43:56;5.15;;;3.92;;
40254;SDS011;25973;52.368;4.940;2022-08-14T01:46:28;6.10;;;3.58;;
40254;SDS011;25973;52.368;4.940;2022-08-14T01:48:56;6.57;;;3.38;;
40254;SDS011;25973;52.368;4.940;2022-08-14T01:51:22;6.13;;;3.55;;
40254;SDS011;25973;52.368;4.940;2022-08-14T01:53:57;5.40;;;3.80;;
40254;SDS011;25973;52.368;4.940;2022-08-14T01:56:30;7.07;;;3.97;;
40254;SDS011;25973;52.368;4.940;2022-08-14T01:59:01;6.22;;;3.50;;
40254;SDS011;25973;52.368;4.940;2022-08-14T02:01:30;7.75;;;3.47;;
40254;SDS011;25973;52.368;4.940;2022-08-14T02:03:56;12.40;;;4.05;;
40254;SDS011;25973;52.368;4.940;2022-08-14T02:06:21;5.60;;;3.50;;
40254;SDS011;25973;52.368;4.940;2022-08-14T02:08:48;9.98;;;3.38;;
40254;SDS011;25973;52.368;4.940;2022-08-14T02:11:14;8.90;;;3.50;;
40254;SDS011;25973;52.368;4.940;2022-08-14T02:16:21;7.05;;;4.60;;
40254;SDS011;25973;52.368;4.940;2022-08-14T02:18:49;9.93;;;3.92;;
40254;SDS011;25973;52.368;4.940;2022-08-14T02:21:16;6.15;;;3.72;;
40254;SDS011;25973;52.368;4.940;2022-08-14T02:23:43;6.78;;;4.60;;
40254;SDS011;25973;52.368;4.940;2022-08-14T02:26:18;4.97;;;3.13;;
40254;SDS011;25973;52.368;4.940;2022-08-14T02:28:46;9.57;;;4.30;;
40254;SDS011;25973;52.368;4.940;2022-08-14T02:31:14;6.82;;;4.10;;
40254;SDS011;25973;52.368;4.940;2022-08-14T02:33:40;8.40;;;4.45;;
40254;SDS011;25973;52.368;4.940;2022-08-14T02:36:06;7.38;;;3.97;;
40254;SDS011;25973;52.368;4.940;2022-08-14T02:38:33;6.43;;;3.80;;
40254;SDS011;25973;52.368;4.940;2022-08-14T02:40:59;5.75;;;3.95;;
40254;SDS011;25973;52.368;4.940;2022-08-14T02:43:26;5.68;;;3.45;;
40254;SDS011;25973;52.368;4.940;2022-08-14T02:45:53;6.70;;;3.80;;
40254;SDS011;25973;52.368;4.940;2022-08-14T02:48:18;5.95;;;4.10;;
40254;SDS011;25973;52.368;4.940;2022-08-14T02:50:44;7.40;;;3.42;;
40254;SDS011;25973;52.368;4.940;2022-08-14T02:53:10;6.55;;;3.15;;
40254;SDS011;25973;52.368;4.940;2022-08-14T02:55:36;7.57;;;3.33;;
40254;SDS011;25973;52.368;4.940;2022-08-14T02:58:04;6.25;;;3.90;;
40254;SDS011;25973;52.368;4.940;2022-08-14T03:00:31;7.47;;;4.22;;
40254;SDS011;25973;52.368;4.940;2022-08-14T03:02:59;5.80;;;3.45;;
40254;SDS011;25973;52.368;4.940;2022-08-14T03:05:26;6.10;;;3.60;;
40254;SDS011;25973;52.368;4.940;2022-08-14T03:08:02;6.10;;;3.83;;
40254;SDS011;25973;52.368;4.940;2022-08-14T03:10:33;8.90;;;4.00;;
40254;SDS011;25973;52.368;4.940;2022-08-14T03:12:59;6.22;;;4.05;;
40254;SDS011;25973;52.368;4.940;2022-08-14T03:15:28;8.30;;;4.03;;
40254;SDS011;25973;52.368;4.940;2022-08-14T03:18:08;7.40;;;3.78;;
40254;SDS011;25973;52.368;4.940;2022-08-14T03:20:34;6.63;;;3.60;;
40254;SDS011;25973;52.368;4.940;2022-08-14T03:23:00;7.65;;;4.45;;
40254;SDS011;25973;52.368;4.940;2022-08-14T03:25:26;7.28;;;3.92;;
40254;SDS011;25973;52.368;4.940;2022-08-14T03:27:57;7.45;;;4.10;;
40254;SDS011;25973;52.368;4.940;2022-08-14T03:30:27;6.45;;;4.05;;
40254;SDS011;25973;52.368;4.940;2022-08-14T03:32:55;9.57;;;3.95;;
40254;SDS011;25973;52.368;4.940;2022-08-14T03:35:21;6.15;;;3.75;;
40254;SDS011;25973;52.368;4.940;2022-08-14T03:37:47;7.60;;;4.13;;
40254;SDS011;25973;52.368;4.940;2022-08-14T03:40:14;7.90;;;4.68;;
40254;SDS011;25973;52.368;4.940;2022-08-14T03:42:40;5.63;;;3.95;;
40254;SDS011;25973;52.368;4.940;2022-08-14T03:45:06;12.63;;;4.32;;
40254;SDS011;25973;52.368;4.940;2022-08-14T03:47:32;6.78;;;3.88;;
40254;SDS011;25973;52.368;4.940;2022-08-14T03:50:00;6.95;;;4.38;;
40254;SDS011;25973;52.368;4.940;2022-08-14T03:52:26;11.80;;;4.57;;
40254;SDS011;25973;52.368;4.940;2022-08-14T03:54:51;8.50;;;4.35;;
40254;SDS011;25973;52.368;4.940;2022-08-14T03:57:17;9.32;;;3.80;;
40254;SDS011;25973;52.368;4.940;2022-08-14T03:59:42;7.05;;;4.10;;
40254;SDS011;25973;52.368;4.940;2022-08-14T04:02:08;10.10;;;4.80;;
40254;SDS011;25973;52.368;4.940;2022-08-14T04:04:33;8.27;;;4.22;;
40254;SDS011;25973;52.368;4.940;2022-08-14T04:06:59;8.13;;;4.88;;
40254;SDS011;25973;52.368;4.940;2022-08-14T04:09:25;12.32;;;4.75;;
40254;SDS011;25973;52.368;4.940;2022-08-14T04:11:52;4.80;;;3.83;;
40254;SDS011;25973;52.368;4.940;2022-08-14T04:14:18;5.82;;;3.33;;
40254;SDS011;25973;52.368;4.940;2022-08-14T04:16:43;10.90;;;5.10;;
40254;SDS011;25973;52.368;4.940;2022-08-14T04:19:11;5.75;;;3.60;;
40254;SDS011;25973;52.368;4.940;2022-08-14T04:21:38;5.13;;;3.65;;
40254;SDS011;25973;52.368;4.940;2022-08-14T04:24:05;6.32;;;4.43;;
40254;SDS011;25973;52.368;4.940;2022-08-14T04:26:30;7.38;;;4.93;;
40254;SDS011;25973;52.368;4.940;2022-08-14T04:28:56;6.05;;;3.85;;
40254;SDS011;25973;52.368;4.940;2022-08-14T04:31:22;9.68;;;4.28;;
40254;SDS011;25973;52.368;4.940;2022-08-14T04:33:49;7.97;;;4.43;;
40254;SDS011;25973;52.368;4.940;2022-08-14T04:36:16;7.30;;;4.30;;
40254;SDS011;25973;52.368;4.940;2022-08-14T04:38:42;5.80;;;4.25;;
40254;SDS011;25973;52.368;4.940;2022-08-14T04:41:27;6.57;;;4.00;;
40254;SDS011;25973;52.368;4.940;2022-08-14T04:44:11;4.93;;;3.78;;
40254;SDS011;25973;52.368;4.940;2022-08-14T04:46:36;8.98;;;4.50;;
40254;SDS011;25973;52.368;4.940;2022-08-14T04:49:03;7.25;;;4.18;;
40254;SDS011;25973;52.368;4.940;2022-08-14T04:51:29;10.43;;;3.83;;
40254;SDS011;25973;52.368;4.940;2022-08-14T04:53:55;7.55;;;4.25;;
40254;SDS011;25973;52.368;4.940;2022-08-14T04:56:21;6.95;;;3.85;;
40254;SDS011;25973;52.368;4.940;2022-08-14T04:58:49;6.63;;;3.67;;
40254;SDS011;25973;52.368;4.940;2022-08-14T05:01:15;6.57;;;3.88;;
40254;SDS011;25973;52.368;4.940;2022-08-14T05:03:41;6.07;;;4.05;;
40254;SDS011;25973;52.368;4.940;2022-08-14T05:06:08;10.90;;;4.80;;
40254;SDS011;25973;52.368;4.940;2022-08-14T05:08:35;7.32;;;4.93;;
40254;SDS011;25973;52.368;4.940;2022-08-14T05:11:02;13.50;;;5.05;;
40254;SDS011;25973;52.368;4.940;2022-08-14T05:13:30;7.57;;;4.70;;
40254;SDS011;25973;52.368;4.940;2022-08-14T05:15:59;7.53;;;4.43;;
40254;SDS011;25973;52.368;4.940;2022-08-14T05:18:26;6.72;;;4.32;;
40254;SDS011;25973;52.368;4.940;2022-08-14T05:20:56;9.82;;;4.45;;
40254;SDS011;25973;52.368;4.940;2022-08-14T05:23:23;6.85;;;4.07;;
40254;SDS011;25973;52.368;4.940;2022-08-14T05:25:52;5.18;;;3.67;;
40254;SDS011;25973;52.368;4.940;2022-08-14T05:28:25;10.18;;;4.40;;
40254;SDS011;25973;52.368;4.940;2022-08-14T05:30:54;7.70;;;4.57;;
40254;SDS011;25973;52.368;4.940;2022-08-14T05:33:21;7.60;;;4.20;;
40254;SDS011;25973;52.368;4.940;2022-08-14T05:35:49;9.27;;;4.75;;
40254;SDS011;25973;52.368;4.940;2022-08-14T05:38:16;7.95;;;5.25;;
40254;SDS011;25973;52.368;4.940;2022-08-14T05:40:47;7.85;;;5.03;;
40254;SDS011;25973;52.368;4.940;2022-08-14T05:43:13;6.72;;;4.38;;
40254;SDS011;25973;52.368;4.940;2022-08-14T05:45:40;8.70;;;4.30;;
40254;SDS011;25973;52.368;4.940;2022-08-14T05:48:13;8.05;;;4.43;;
40254;SDS011;25973;52.368;4.940;2022-08-14T05:50:42;8.45;;;4.65;;
40254;SDS011;25973;52.368;4.940;2022-08-14T05:53:08;15.77;;;6.53;;
40254;SDS011;25973;52.368;4.940;2022-08-14T05:55:33;12.98;;;5.13;;
40254;SDS011;25973;52.368;4.940;2022-08-14T05:58:00;8.20;;;4.43;;
40254;SDS011;25973;52.368;4.940;2022-08-14T06:00:37;9.40;;;4.57;;
40254;SDS011;25973;52.368;4.940;2022-08-14T06:03:15;9.35;;;4.85;;
40254;SDS011;25973;52.368;4.940;2022-08-14T06:05:44;9.57;;;4.40;;
40254;SDS011;25973;52.368;4.940;2022-08-14T06:08:18;6.18;;;4.47;;
40254;SDS011;25973;52.368;4.940;2022-08-14T06:10:46;8.30;;;4.90;;
40254;SDS011;25973;52.368;4.940;2022-08-14T06:13:13;9.15;;;4.97;;
40254;SDS011;25973;52.368;4.940;2022-08-14T06:15:39;9.35;;;4.47;;
40254;SDS011;25973;52.368;4.940;2022-08-14T06:18:05;8.02;;;4.80;;
40254;SDS011;25973;52.368;4.940;2022-08-14T06:20:32;14.13;;;4.75;;
40254;SDS011;25973;52.368;4.940;2022-08-14T06:22:58;8.80;;;5.00;;
40254;SDS011;25973;52.368;4.940;2022-08-14T06:25:23;7.32;;;4.95;;
40254;SDS011;25973;52.368;4.940;2022-08-14T06:27:50;8.88;;;4.85;;
40254;SDS011;25973;52.368;4.940;2022-08-14T06:30:17;10.02;;;4.78;;
40254;SDS011;25973;52.368;4.940;2022-08-14T06:32:44;10.18;;;5.13;;
40254;SDS011;25973;52.368;4.940;2022-08-14T06:35:10;7.22;;;4.35;;
40254;SDS011;25973;52.368;4.940;2022-08-14T06:37:43;11.60;;;5.03;;
40254;SDS011;25973;52.368;4.940;2022-08-14T06:40:11;18.55;;;5.00;;
40254;SDS011;25973;52.368;4.940;2022-08-14T06:42:39;11.98;;;3.95;;
40254;SDS011;25973;52.368;4.940;2022-08-14T06:45:05;8.40;;;4.90;;
40254;SDS011;25973;52.368;4.940;2022-08-14T06:47:38;6.60;;;4.18;;
40254;SDS011;25973;52.368;4.940;2022-08-14T06:50:06;10.50;;;4.72;;
40254;SDS011;25973;52.368;4.940;2022-08-14T06:52:35;8.15;;;4.50;;
40254;SDS011;25973;52.368;4.940;2022-08-14T06:55:01;5.60;;;3.95;;
40254;SDS011;25973;52.368;4.940;2022-08-14T06:57:35;10.55;;;4.40;;
40254;SDS011;25973;52.368;4.940;2022-08-14T07:00:10;7.97;;;3.60;;
40254;SDS011;25973;52.368;4.940;2022-08-14T07:02:37;7.78;;;4.28;;
40254;SDS011;25973;52.368;4.940;2022-08-14T07:05:22;8.52;;;4.03;;
40254;SDS011;25973;52.368;4.940;2022-08-14T07:08:20;6.38;;;3.88;;
40254;SDS011;25973;52.368;4.940;2022-08-14T07:10:51;9.43;;;3.22;;
40254;SDS011;25973;52.368;4.940;2022-08-14T07:13:18;7.47;;;4.22;;
40254;SDS011;25973;52.368;4.940;2022-08-14T07:15:45;8.10;;;4.20;;
40254;SDS011;25973;52.368;4.940;2022-08-14T07:18:14;6.75;;;4.28;;
40254;SDS011;25973;52.368;4.940;2022-08-14T07:20:44;8.05;;;3.80;;
40254;SDS011;25973;52.368;4.940;2022-08-14T07:23:09;4.75;;;3.55;;
40254;SDS011;25973;52.368;4.940;2022-08-14T07:25:36;9.45;;;3.88;;
40254;SDS011;25973;52.368;4.940;2022-08-14T07:28:12;6.50;;;3.60;;
40254;SDS011;25973;52.368;4.940;2022-08-14T07:30:40;10.13;;;3.60;;
40254;SDS011;25973;52.368;4.940;2022-08-14T07:33:07;6.93;;;4.18;;
40254;SDS011;25973;52.368;4.940;2022-08-14T07:35:33;7.15;;;3.92;;
40254;SDS011;25973;52.368;4.940;2022-08-14T07:38:00;8.93;;;3.78;;
40254;SDS011;25973;52.368;4.940;2022-08-14T07:40:25;6.15;;;3.53;;
40254;SDS011;25973;52.368;4.940;2022-08-14T07:42:51;8.10;;;4.07;;
40254;SDS011;25973;52.368;4.940;2022-08-14T07:45:17;5.40;;;3.83;;
40254;SDS011;25973;52.368;4.940;2022-08-14T07:47:43;7.38;;;4.07;;
40254;SDS011;25973;52.368;4.940;2022-08-14T07:50:12;6.43;;;3.92;;
40254;SDS011;25973;52.368;4.940;2022-08-14T07:52:40;7.22;;;3.65;;
40254;SDS011;25973;52.368;4.940;2022-08-14T07:55:07;6.13;;;3.75;;
40254;SDS011;25973;52.368;4.940;2022-08-14T07:57:36;6.88;;;4.10;;
40254;SDS011;25973;52.368;4.940;2022-08-14T08:00:04;6.72;;;3.60;;
40254;SDS011;25973;52.368;4.940;2022-08-14T08:02:33;7.85;;;5.03;;
40254;SDS011;25973;52.368;4.940;2022-08-14T08:05:00;6.90;;;4.07;;
40254;SDS011;25973;52.368;4.940;2022-08-14T08:07:28;6.13;;;4.65;;
40254;SDS011;25973;52.368;4.940;2022-08-14T08:09:55;6.95;;;4.20;;
40254;SDS011;25973;52.368;4.940;2022-08-14T08:12:23;10.05;;;4.47;;
40254;SDS011;25973;52.368;4.940;2022-08-14T08:14:50;8.63;;;4.85;;
40254;SDS011;25973;52.368;4.940;2022-08-14T08:17:19;7.13;;;3.97;;
40254;SDS011;25973;52.368;4.940;2022-08-14T08:19:46;10.80;;;4.22;;
40254;SDS011;25973;52.368;4.940;2022-08-14T08:22:12;9.05;;;4.47;;
40254;SDS011;25973;52.368;4.940;2022-08-14T08:24:38;8.68;;;4.32;;
40254;SDS011;25973;52.368;4.940;2022-08-14T08:27:14;10.15;;;4.82;;
40254;SDS011;25973;52.368;4.940;2022-08-14T08:29:40;7.03;;;4.18;;
40254;SDS011;25973;52.368;4.940;2022-08-14T08:32:06;6.65;;;4.22;;
40254;SDS011;25973;52.368;4.940;2022-08-14T08:34:41;8.15;;;4.38;;
40254;SDS011;25973;52.368;4.940;2022-08-14T08:37:09;8.48;;;4.60;;
40254;SDS011;25973;52.368;4.940;2022-08-14T08:39:42;10.30;;;4.57;;
40254;SDS011;25973;52.368;4.940;2022-08-14T08:42:09;7.50;;;4.63;;
40254;SDS011;25973;52.368;4.940;2022-08-14T08:44:34;9.52;;;4.38;;
40254;SDS011;25973;52.368;4.940;2022-08-14T08:47:00;8.35;;;4.63;;
40254;SDS011;25973;52.368;4.940;2022-08-14T08:49:40;7.30;;;4.90;;
40254;SDS011;25973;52.368;4.940;2022-08-14T08:52:07;9.50;;;4.55;;
40254;SDS011;25973;52.368;4.940;2022-08-14T08:54:32;8.68;;;4.90;;
40254;SDS011;25973;52.368;4.940;2022-08-14T08:56:58;13.02;;;4.63;;
40254;SDS011;25973;52.368;4.940;2022-08-14T08:59:25;9.60;;;4.25;;
40254;SDS011;25973;52.368;4.940;2022-08-14T09:01:54;9.35;;;4.75;;
40254;SDS011;25973;52.368;4.940;2022-08-14T09:04:23;7.65;;;4.93;;
40254;SDS011;25973;52.368;4.940;2022-08-14T09:06:50;7.90;;;4.85;;
40254;SDS011;25973;52.368;4.940;2022-08-14T09:09:20;11.60;;;5.28;;
40254;SDS011;25973;52.368;4.940;2022-08-14T09:11:46;6.18;;;4.55;;
40254;SDS011;25973;52.368;4.940;2022-08-14T09:14:12;12.48;;;5.07;;
40254;SDS011;25973;52.368;4.940;2022-08-14T09:16:37;10.63;;;5.50;;
40254;SDS011;25973;52.368;4.940;2022-08-14T09:19:04;7.03;;;5.03;;
40254;SDS011;25973;52.368;4.940;2022-08-14T09:21:30;8.48;;;5.03;;
40254;SDS011;25973;52.368;4.940;2022-08-14T09:23:59;7.63;;;5.30;;
40254;SDS011;25973;52.368;4.940;2022-08-14T09:26:25;9.30;;;4.57;;
40254;SDS011;25973;52.368;4.940;2022-08-14T09:28:51;6.47;;;4.88;;
40254;SDS011;25973;52.368;4.940;2022-08-14T09:31:17;6.35;;;4.50;;
40254;SDS011;25973;52.368;4.940;2022-08-14T09:33:57;8.30;;;5.05;;
40254;SDS011;25973;52.368;4.940;2022-08-14T09:39:22;6.97;;;3.95;;
40254;SDS011;25973;52.368;4.940;2022-08-14T09:42:17;9.55;;;4.90;;
40254;SDS011;25973;52.368;4.940;2022-08-14T09:45:08;6.13;;;4.57;;
40254;SDS011;25973;52.368;4.940;2022-08-14T09:47:54;9.15;;;4.00;;
40254;SDS011;25973;52.368;4.940;2022-08-14T09:55:26;12.23;;;4.28;;
40254;SDS011;25973;52.368;4.940;2022-08-14T10:00:48;9.20;;;4.15;;
40254;SDS011;25973;52.368;4.940;2022-08-14T10:03:31;6.90;;;3.90;;
40254;SDS011;25973;52.368;4.940;2022-08-14T10:06:03;6.90;;;3.50;;
40254;SDS011;25973;52.368;4.940;2022-08-14T10:08:39;5.22;;;3.80;;
40254;SDS011;25973;52.368;4.940;2022-08-14T10:11:29;9.40;;;4.53;;
40254;SDS011;25973;52.368;4.940;2022-08-14T10:14:10;5.13;;;3.92;;
40254;SDS011;25973;52.368;4.940;2022-08-14T10:16:40;5.70;;;3.53;;
40254;SDS011;25973;52.368;4.940;2022-08-14T10:19:08;6.32;;;3.72;;
40254;SDS011;25973;52.368;4.940;2022-08-14T10:21:37;6.53;;;3.50;;
40254;SDS011;25973;52.368;4.940;2022-08-14T10:24:10;5.97;;;2.83;;
40254;SDS011;25973;52.368;4.940;2022-08-14T10:26:52;5.70;;;2.95;;
40254;SDS011;25973;52.368;4.940;2022-08-14T10:29:28;8.20;;;3.17;;
40254;SDS011;25973;52.368;4.940;2022-08-14T10:31:58;9.70;;;3.77;;
40254;SDS011;25973;52.368;4.940;2022-08-14T10:34:29;5.00;;;3.55;;
40254;SDS011;25973;52.368;4.940;2022-08-14T10:37:03;7.57;;;3.38;;
40254;SDS011;25973;52.368;4.940;2022-08-14T10:39:31;4.78;;;3.25;;
40254;SDS011;25973;52.368;4.940;2022-08-14T10:42:01;6.10;;;3.90;;
40254;SDS011;25973;52.368;4.940;2022-08-14T10:44:31;4.78;;;3.00;;
40254;SDS011;25973;52.368;4.940;2022-08-14T10:47:00;6.80;;;3.92;;
40254;SDS011;25973;52.368;4.940;2022-08-14T10:49:37;6.10;;;4.25;;
40254;SDS011;25973;52.368;4.940;2022-08-14T10:52:21;7.82;;;3.63;;
40254;SDS011;25973;52.368;4.940;2022-08-14T10:54:48;7.25;;;3.85;;
40254;SDS011;25973;52.368;4.940;2022-08-14T10:57:19;7.18;;;4.10;;
40254;SDS011;25973;52.368;4.940;2022-08-14T11:00:00;8.48;;;4.10;;
40254;SDS011;25973;52.368;4.940;2022-08-14T11:02:38;7.35;;;4.35;;
40254;SDS011;25973;52.368;4.940;2022-08-14T11:07:31;7.32;;;3.85;;
40254;SDS011;25973;52.368;4.940;2022-08-14T11:10:00;7.05;;;3.53;;
40254;SDS011;25973;52.368;4.940;2022-08-14T11:12:39;7.80;;;3.87;;
40254;SDS011;25973;52.368;4.940;2022-08-14T11:15:10;7.85;;;3.70;;
40254;SDS011;25973;52.368;4.940;2022-08-14T11:17:36;5.10;;;3.42;;
40254;SDS011;25973;52.368;4.940;2022-08-14T11:20:03;4.82;;;3.00;;
40254;SDS011;25973;52.368;4.940;2022-08-14T11:22:31;4.88;;;3.42;;
40254;SDS011;25973;52.368;4.940;2022-08-14T11:24:59;4.00;;;3.10;;
40254;SDS011;25973;52.368;4.940;2022-08-14T11:27:28;11.05;;;3.58;;
40254;SDS011;25973;52.368;4.940;2022-08-14T11:30:00;4.32;;;2.95;;
40254;SDS011;25973;52.368;4.940;2022-08-14T11:32:30;5.55;;;2.92;;
40254;SDS011;25973;52.368;4.940;2022-08-14T11:34:57;4.20;;;2.80;;
40254;SDS011;25973;52.368;4.940;2022-08-14T11:37:23;5.05;;;3.10;;
40254;SDS011;25973;52.368;4.940;2022-08-14T11:39:49;3.50;;;2.60;;
40254;SDS011;25973;52.368;4.940;2022-08-14T11:42:19;5.22;;;2.70;;
40254;SDS011;25973;52.368;4.940;2022-08-14T11:44:47;6.15;;;3.33;;
40254;SDS011;25973;52.368;4.940;2022-08-14T11:47:14;3.25;;;2.53;;
40254;SDS011;25973;52.368;4.940;2022-08-14T11:49:43;4.28;;;2.95;;
40254;SDS011;25973;52.368;4.940;2022-08-14T11:52:11;5.90;;;2.97;;
40254;SDS011;25973;52.368;4.940;2022-08-14T11:54:38;5.10;;;2.47;;
40254;SDS011;25973;52.368;4.940;2022-08-14T11:57:03;3.30;;;2.60;;
40254;SDS011;25973;52.368;4.940;2022-08-14T11:59:30;5.80;;;3.33;;
40254;SDS011;25973;52.368;4.940;2022-08-14T12:02:07;4.40;;;3.22;;
40254;SDS011;25973;52.368;4.940;2022-08-14T12:04:33;3.60;;;2.47;;
40254;SDS011;25973;52.368;4.940;2022-08-14T12:06:59;7.68;;;2.55;;
40254;SDS011;25973;52.368;4.940;2022-08-14T12:09:35;4.03;;;2.65;;
40254;SDS011;25973;52.368;4.940;2022-08-14T12:12:15;4.13;;;2.65;;
40254;SDS011;25973;52.368;4.940;2022-08-14T12:17:12;4.68;;;2.78;;
40254;SDS011;25973;52.368;4.940;2022-08-14T12:19:42;5.57;;;2.80;;
40254;SDS011;25973;52.368;4.940;2022-08-14T12:22:31;8.55;;;3.45;;
40254;SDS011;25973;52.368;4.940;2022-08-14T12:25:02;8.82;;;2.70;;
40254;SDS011;25973;52.368;4.940;2022-08-14T12:27:40;3.38;;;2.20;;
40254;SDS011;25973;52.368;4.940;2022-08-14T12:30:08;3.55;;;2.35;;
40254;SDS011;25973;52.368;4.940;2022-08-14T12:32:40;5.53;;;2.80;;
40254;SDS011;25973;52.368;4.940;2022-08-14T12:35:07;5.22;;;2.13;;
40254;SDS011;25973;52.368;4.940;2022-08-14T12:37:34;4.22;;;1.83;;
40254;SDS011;25973;52.368;4.940;2022-08-14T12:40:11;2.78;;;2.22;;
40254;SDS011;25973;52.368;4.940;2022-08-14T12:42:39;5.20;;;2.33;;
40254;SDS011;25973;52.368;4.940;2022-08-14T12:45:05;3.95;;;2.50;;
40254;SDS011;25973;52.368;4.940;2022-08-14T12:47:32;3.13;;;2.20;;
40254;SDS011;25973;52.368;4.940;2022-08-14T12:49:58;4.43;;;2.47;;
40254;SDS011;25973;52.368;4.940;2022-08-14T12:52:34;4.00;;;2.33;;
40254;SDS011;25973;52.368;4.940;2022-08-14T12:55:04;4.30;;;2.65;;
40254;SDS011;25973;52.368;4.940;2022-08-14T12:57:37;4.28;;;2.58;;
40254;SDS011;25973;52.368;4.940;2022-08-14T13:00:08;2.67;;;2.13;;
40254;SDS011;25973;52.368;4.940;2022-08-14T13:02:36;3.38;;;2.10;;
40254;SDS011;25973;52.368;4.940;2022-08-14T13:05:03;3.47;;;2.20;;
40254;SDS011;25973;52.368;4.940;2022-08-14T13:07:29;8.10;;;3.78;;
40254;SDS011;25973;52.368;4.940;2022-08-14T13:09:55;5.57;;;2.90;;
40254;SDS011;25973;52.368;4.940;2022-08-14T13:12:22;5.53;;;2.35;;
40254;SDS011;25973;52.368;4.940;2022-08-14T13:14:56;4.90;;;2.10;;
40254;SDS011;25973;52.368;4.940;2022-08-14T13:17:23;5.10;;;3.20;;
40254;SDS011;25973;52.368;4.940;2022-08-14T13:19:55;4.85;;;2.28;;
40254;SDS011;25973;52.368;4.940;2022-08-14T13:22:22;4.15;;;2.15;;
40254;SDS011;25973;52.368;4.940;2022-08-14T13:24:52;2.55;;;1.85;;
40254;SDS011;25973;52.368;4.940;2022-08-14T13:27:22;10.13;;;6.15;;
40254;SDS011;25973;52.368;4.940;2022-08-14T13:29:50;3.97;;;2.50;;
40254;SDS011;25973;52.368;4.940;2022-08-14T13:32:25;5.45;;;2.80;;
40254;SDS011;25973;52.368;4.940;2022-08-14T13:34:52;2.65;;;1.92;;
40254;SDS011;25973;52.368;4.940;2022-08-14T13:37:18;3.05;;;1.85;;
40254;SDS011;25973;52.368;4.940;2022-08-14T13:39:47;4.00;;;2.40;;
40254;SDS011;25973;52.368;4.940;2022-08-14T13:42:14;3.47;;;2.17;;
40254;SDS011;25973;52.368;4.940;2022-08-14T13:44:41;4.40;;;1.80;;
40254;SDS011;25973;52.368;4.940;2022-08-14T13:47:09;5.38;;;2.50;;
40254;SDS011;25973;52.368;4.940;2022-08-14T13:49:36;5.65;;;1.77;;
40254;SDS011;25973;52.368;4.940;2022-08-14T13:52:02;7.65;;;3.03;;
40254;SDS011;25973;52.368;4.940;2022-08-14T13:54:29;3.15;;;2.30;;
40254;SDS011;25973;52.368;4.940;2022-08-14T13:56:59;9.23;;;3.67;;
40254;SDS011;25973;52.368;4.940;2022-08-14T13:59:27;5.43;;;2.45;;
40254;SDS011;25973;52.368;4.940;2022-08-14T14:01:55;6.65;;;2.83;;
40254;SDS011;25973;52.368;4.940;2022-08-14T14:04:23;5.90;;;2.88;;
40254;SDS011;25973;52.368;4.940;2022-08-14T14:06:51;4.50;;;2.50;;
40254;SDS011;25973;52.368;4.940;2022-08-14T14:09:19;3.47;;;2.38;;
40254;SDS011;25973;52.368;4.940;2022-08-14T14:11:54;9.95;;;3.83;;
40254;SDS011;25973;52.368;4.940;2022-08-14T14:16:49;8.02;;;2.30;;
40254;SDS011;25973;52.368;4.940;2022-08-14T14:19:17;3.63;;;2.38;;
40254;SDS011;25973;52.368;4.940;2022-08-14T14:21:44;4.03;;;2.60;;
40254;SDS011;25973;52.368;4.940;2022-08-14T14:24:14;3.30;;;2.50;;
40254;SDS011;25973;52.368;4.940;2022-08-14T14:26:41;4.50;;;2.70;;
40254;SDS011;25973;52.368;4.940;2022-08-14T14:29:09;5.05;;;2.78;;
40254;SDS011;25973;52.368;4.940;2022-08-14T14:31:38;4.07;;;2.97;;
40254;SDS011;25973;52.368;4.940;2022-08-14T14:34:05;5.07;;;3.15;;
40254;SDS011;25973;52.368;4.940;2022-08-14T14:36:33;6.97;;;4.07;;
40254;SDS011;25973;52.368;4.940;2022-08-14T14:39:00;4.72;;;2.92;;
40254;SDS011;25973;52.368;4.940;2022-08-14T14:41:32;3.78;;;2.60;;
40254;SDS011;25973;52.368;4.940;2022-08-14T14:44:01;5.75;;;3.25;;
40254;SDS011;25973;52.368;4.940;2022-08-14T14:46:35;4.03;;;2.72;;
40254;SDS011;25973;52.368;4.940;2022-08-14T14:49:03;3.28;;;2.47;;
40254;SDS011;25973;52.368;4.940;2022-08-14T14:51:30;8.52;;;2.92;;
40254;SDS011;25973;52.368;4.940;2022-08-14T14:53:56;5.13;;;3.35;;
40254;SDS011;25973;52.368;4.940;2022-08-14T14:56:22;8.07;;;3.40;;
40254;SDS011;25973;52.368;4.940;2022-08-14T14:58:49;4.68;;;2.80;;
40254;SDS011;25973;52.368;4.940;2022-08-14T15:01:15;4.97;;;2.92;;
40254;SDS011;25973;52.368;4.940;2022-08-14T15:03:41;5.78;;;3.17;;
40254;SDS011;25973;52.368;4.940;2022-08-14T15:06:10;6.20;;;3.13;;
40254;SDS011;25973;52.368;4.940;2022-08-14T15:08:36;5.30;;;2.85;;
40254;SDS011;25973;52.368;4.940;2022-08-14T15:11:02;6.22;;;3.00;;
40254;SDS011;25973;52.368;4.940;2022-08-14T15:13:28;8.95;;;2.95;;
40254;SDS011;25973;52.368;4.940;2022-08-14T15:15:54;7.57;;;3.30;;
40254;SDS011;25973;52.368;4.940;2022-08-14T15:18:20;4.90;;;2.70;;